Time;durP1;ratioP1;P1;durP2;ratioP2;P2;SDS_P1;SDS_P2;PMS_P1;PMS_P2;Temp;Humidity;BMP_temperature;BMP_pressure;BME280_temperature;BME280_humidity;BME280_pressure;Samples;Min_cycle;Max_cycle;Signal;HPM_P1;HPM_P2
2022/03/21 00:07:57;;;;;;;;;50.50;39.00;;;;;;;;2;261078171;261078171;-79
2022/03/21 00:16:13;;;;;;;;;59.50;41.00;;;;;;;;2;261077210;261077210;-79
2022/03/21 00:25:13;;;;;;;;;45.50;32.00;;;;;;;;2;261074326;261074326;-77
2022/03/21 00:33:29;;;;;;;;;51.00;39.50;;;;;;;;2;261077399;261077399;-79
2022/03/21 00:42:29;;;;;;;;;50.00;41.00;;;;;;;;2;261075585;261075585;-78
2022/03/21 00:50:45;;;;;;;;;54.50;40.00;;;;;;;;2;261073396;261073396;-79
2022/03/21 00:59:45;;;;;;;;;51.00;35.50;;;;;;;;2;261074412;261074412;-78
2022/03/21 01:08:04;;;;;;;;;44.50;37.00;;;;;;;;2;261079825;261079825;-78
2022/03/21 01:17:05;;;;;;;;;46.00;39.50;;;;;;;;2;261075512;261075512;-78
2022/03/21 01:25:21;;;;;;;;;59.50;39.50;;;;;;;;2;261079051;261079051;-78
2022/03/21 01:34:21;;;;;;;;;37.50;34.50;;;;;;;;2;261079353;261079353;-78
2022/03/21 01:42:37;;;;;;;;;52.00;34.00;;;;;;;;2;261073741;261073741;-78
2022/03/21 01:51:38;;;;;;;;;58.00;35.50;;;;;;;;2;261075041;261075041;-78
2022/03/21 01:59:55;;;;;;;;;57.00;37.50;;;;;;;;2;261074414;261074414;-78
2022/03/21 02:08:59;;;;;;;;;61.00;39.00;;;;;;;;2;261076311;261076311;-79
2022/03/21 02:17:22;;;;;;;;;52.50;44.50;;;;;;;;2;261075293;261075293;-79
2022/03/21 02:26:23;;;;;;;;;46.50;30.50;;;;;;;;2;261077245;261077245;-78
2022/03/21 02:34:38;;;;;;;;;59.50;43.50;;;;;;;;2;261077793;261077793;-79
2022/03/21 02:43:51;;;;;;;;;40.50;35.00;;;;;;;;2;261075579;261075579;-78
2022/03/21 02:52:06;;;;;;;;;46.50;38.50;;;;;;;;2;261076323;261076323;-78
2022/03/21 03:01:08;;;;;;;;;66.50;32.50;;;;;;;;2;261070694;261070694;-78
2022/03/21 03:09:23;;;;;;;;;56.50;38.00;;;;;;;;2;261078771;261078771;-78
2022/03/21 03:18:24;;;;;;;;;54.00;37.00;;;;;;;;2;261075971;261075971;-78
2022/03/21 03:26:39;;;;;;;;;39.50;35.50;;;;;;;;2;261078700;261078700;-78
2022/03/21 03:35:40;;;;;;;;;53.00;39.50;;;;;;;;2;261078588;261078588;-78
2022/03/21 03:43:56;;;;;;;;;46.00;39.50;;;;;;;;2;261077329;261077329;-78
2022/03/21 03:52:56;;;;;;;;;35.00;27.50;;;;;;;;2;261075076;261075076;-79
2022/03/21 04:01:11;;;;;;;;;56.50;32.50;;;;;;;;2;261075709;261075709;-78
2022/03/21 04:10:12;;;;;;;;;55.00;39.00;;;;;;;;2;261075821;261075821;-78
2022/03/21 04:18:27;;;;;;;;;47.00;34.50;;;;;;;;2;261077935;261077935;-78
2022/03/21 04:27:28;;;;;;;;;66.00;41.00;;;;;;;;2;261076031;261076031;-79
2022/03/21 04:35:43;;;;;;;;;35.00;31.00;;;;;;;;2;261076726;261076726;-78
2022/03/21 04:44:46;;;;;;;;;48.50;41.50;;;;;;;;2;261077051;261077051;-78
2022/03/21 04:53:02;;;;;;;;;69.00;38.50;;;;;;;;2;261077344;261077344;-78
2022/03/21 05:02:02;;;;;;;;;57.00;41.00;;;;;;;;2;261075953;261075953;-78
2022/03/21 05:10:18;;;;;;;;;43.50;35.00;;;;;;;;2;261077831;261077831;-78
2022/03/21 05:19:19;;;;;;;;;43.00;36.00;;;;;;;;2;261078497;261078497;-78
2022/03/21 05:36:54;;;;;;;;;48.50;40.00;;;;;;;;2;261075710;261075710;-79
2022/03/21 05:45:10;;;;;;;;;66.00;44.00;;;;;;;;2;261076920;261076920;-81
2022/03/21 05:54:12;;;;;;;;;56.00;36.00;;;;;;;;2;261075348;261075348;-79
2022/03/21 06:02:27;;;;;;;;;59.00;42.50;;;;;;;;2;261078989;261078989;-80
2022/03/21 06:11:29;;;;;;;;;46.50;38.00;;;;;;;;2;261076485;261076485;-79
2022/03/21 06:19:44;;;;;;;;;50.50;40.00;;;;;;;;2;261081478;261081478;-78
2022/03/21 06:28:44;;;;;;;;;49.50;33.50;;;;;;;;2;261076059;261076059;-78
2022/03/21 06:37:02;;;;;;;;;41.50;32.00;;;;;;;;2;261076903;261076903;-78
2022/03/21 06:46:04;;;;;;;;;63.00;39.50;;;;;;;;2;261078586;261078586;-79
2022/03/21 06:54:20;;;;;;;;;56.50;42.00;;;;;;;;2;261073740;261073740;-80
2022/03/21 07:03:21;;;;;;;;;47.00;36.00;;;;;;;;2;261082260;261082260;-79
2022/03/21 07:11:37;;;;;;;;;49.50;36.50;;;;;;;;2;261080024;261080024;-78
2022/03/21 07:20:37;;;;;;;;;56.50;38.50;;;;;;;;2;261079952;261079952;-79
2022/03/21 07:28:53;;;;;;;;;36.50;33.50;;;;;;;;2;261080632;261080632;-79
2022/03/21 07:37:56;;;;;;;;;40.00;34.50;;;;;;;;2;261077201;261077201;-79
2022/03/21 07:55:31;;;;;;;;;46.00;32.00;;;;;;;;2;261078855;261078855;-79
2022/03/21 08:03:49;;;;;;;;;37.00;34.00;;;;;;;;2;261076986;261076986;-79
2022/03/21 08:12:55;;;;;;;;;52.50;32.50;;;;;;;;2;261085738;261085738;-79
2022/03/21 08:21:11;;;;;;;;;45.50;28.00;;;;;;;;2;261086394;261086394;-80
2022/03/21 08:30:23;;;;;;;;;47.00;36.50;;;;;;;;2;261079477;261079477;-80
2022/03/21 08:48:16;;;;;;;;;47.50;34.50;;;;;;;;2;261081703;261081703;-80
2022/03/21 08:56:39;;;;;;;;;32.00;30.50;;;;;;;;2;261078305;261078305;-80
2022/03/21 09:05:39;;;;;;;;;25.00;24.00;;;;;;;;2;260935931;260935931;-80
2022/03/21 09:14:15;;;;;;;;;33.50;31.50;;;;;;;;2;261075738;261075738;-80
2022/03/21 09:23:18;;;;;;;;;25.50;25.50;;;;;;;;2;261076953;261076953;-81
2022/03/21 09:31:48;;;;;;;;;;;;;;;;;;;;;
2022/03/21 09:41:05;;;;;;;;;57.00;34.50;;;;;;;;2;261104530;261104530;-81
2022/03/21 09:50:01;;;;;;;;;20.00;15.00;;;;;;;;2;261078977;261078977;-81
2022/03/21 09:59:04;;;;;;;;;31.50;30.50;;;;;;;;2;261076997;261076997;-81
2022/03/21 10:07:50;;;;;;;;;;;;;;;;;;;;;
2022/03/21 10:17:07;;;;;;;;;26.50;26.00;;;;;;;;2;261106329;261106329;-81
2022/03/21 10:25:33;;;;;;;;;;;;;;;;;;;;;
2022/03/21 10:43:10;;;;;;;;;19.50;19.50;;;;;;;;2;261076522;261076522;-81
2022/03/21 10:52:15;;;;;;;;;30.50;16.50;;;;;;;;2;261074834;261074834;-81
2022/03/21 11:00:31;;;;;;;;;8.00;8.00;;;;;;;;2;261075542;261075542;-81
2022/03/21 11:09:34;;;;;;;;;12.00;12.00;;;;;;;;2;261078941;261078941;-81
2022/03/21 11:18:02;;;;;;;;;;;;;;;;;;;;;
2022/03/21 11:27:32;;;;;;;;;13.00;13.00;;;;;;;;2;261102554;261102554;-81
2022/03/21 11:36:04;;;;;;;;;16.00;16.00;;;;;;;;2;261079503;261079503;-81
2022/03/21 11:45:26;;;;;;;;;20.00;17.50;;;;;;;;2;261078005;261078005;-80
2022/03/21 11:53:46;;;;;;;;;9.00;9.00;;;;;;;;2;261074582;261074582;-80
2022/03/21 12:02:50;;;;;;;;;3.00;3.00;;;;;;;;2;261078922;261078922;-81
2022/03/21 12:11:05;;;;;;;;;19.00;8.00;;;;;;;;2;261076968;261076968;-81
2022/03/21 12:20:08;;;;;;;;;12.50;12.50;;;;;;;;2;261075465;261075465;-81
2022/03/21 12:37:44;;;;;;;;;15.50;15.50;;;;;;;;2;261075313;261075313;-80
2022/03/21 12:46:06;;;;;;;;;18.50;17.00;;;;;;;;2;261075007;261075007;-80
2022/03/21 12:55:13;;;;;;;;;12.50;12.50;;;;;;;;2;261074480;261074480;-80
2022/03/21 13:03:28;;;;;;;;;13.50;13.50;;;;;;;;2;261076233;261076233;-80
2022/03/21 13:12:29;;;;;;;;;11.50;11.50;;;;;;;;2;261078779;261078779;-81
2022/03/21 13:20:47;;;;;;;;;12.50;12.50;;;;;;;;2;261075152;261075152;-81
2022/03/21 13:29:52;;;;;;;;;18.00;18.00;;;;;;;;2;261079018;261079018;-81
2022/03/21 13:38:07;;;;;;;;;9.00;9.00;;;;;;;;2;261078296;261078296;-80
2022/03/21 13:47:14;;;;;;;;;20.00;18.50;;;;;;;;2;261076930;261076930;-80
2022/03/21 13:55:29;;;;;;;;;24.50;12.50;;;;;;;;2;261079459;261079459;-82
2022/03/21 14:04:31;;;;;;;;;20.00;11.50;;;;;;;;2;261077444;261077444;-82
2022/03/21 14:12:51;;;;;;;;;21.00;15.00;;;;;;;;2;261074962;261074962;-82
2022/03/21 14:21:52;;;;;;;;;7.50;7.50;;;;;;;;2;261076730;261076730;-82
2022/03/21 14:30:08;;;;;;;;;24.00;21.50;;;;;;;;2;261075728;261075728;-83
2022/03/21 14:39:08;;;;;;;;;10.50;10.50;;;;;;;;2;261075752;261075752;-83
2022/03/21 14:47:24;;;;;;;;;8.00;8.00;;;;;;;;2;261077544;261077544;-83
2022/03/21 14:56:27;;;;;;;;;10.50;10.50;;;;;;;;2;261078840;261078840;-85
2022/03/21 15:04:42;;;;;;;;;17.50;9.00;;;;;;;;2;261079235;261079235;-86
2022/03/21 15:13:44;;;;;;;;;11.00;9.50;;;;;;;;2;261077671;261077671;-86
2022/03/21 15:22:03;;;;;;;;;8.00;8.00;;;;;;;;2;261078426;261078426;-87
2022/03/21 15:31:03;;;;;;;;;10.00;10.00;;;;;;;;2;261077747;261077747;-87
2022/03/21 15:48:39;;;;;;;;;28.50;15.50;;;;;;;;2;261078862;261078862;-86
2022/03/21 15:56:54;;;;;;;;;14.00;10.00;;;;;;;;2;261076062;261076062;-86
2022/03/21 16:05:55;;;;;;;;;10.00;10.00;;;;;;;;2;261077269;261077269;-86
2022/03/21 16:14:10;;;;;;;;;10.00;10.00;;;;;;;;2;261079321;261079321;-86
2022/03/21 16:23:11;;;;;;;;;19.50;6.00;;;;;;;;2;261082116;261082116;-82
2022/03/21 16:31:26;;;;;;;;;6.50;6.50;;;;;;;;2;261080365;261080365;-82
2022/03/21 16:40:27;;;;;;;;;9.00;9.00;;;;;;;;2;261079662;261079662;-82
2022/03/21 16:48:45;;;;;;;;;6.50;6.50;;;;;;;;2;261083743;261083743;-82
2022/03/21 16:57:46;;;;;;;;;8.00;8.00;;;;;;;;2;261079510;261079510;-83
2022/03/21 17:06:02;;;;;;;;;11.00;11.00;;;;;;;;2;261078660;261078660;-83
2022/03/21 17:15:02;;;;;;;;;9.50;9.50;;;;;;;;2;261079687;261079687;-83
2022/03/21 17:23:18;;;;;;;;;6.50;6.50;;;;;;;;2;261078583;261078583;-83
2022/03/21 17:32:18;;;;;;;;;3.50;3.50;;;;;;;;2;261076977;261076977;-82
2022/03/21 17:40:35;;;;;;;;;9.00;3.50;;;;;;;;2;261079817;261079817;-82
2022/03/21 17:49:36;;;;;;;;;5.50;5.50;;;;;;;;2;261075113;261075113;-82
2022/03/21 17:57:51;;;;;;;;;5.00;5.00;;;;;;;;2;261077402;261077402;-82
2022/03/21 18:06:53;;;;;;;;;8.50;7.00;;;;;;;;2;261076860;261076860;-82
2022/03/21 18:15:08;;;;;;;;;8.00;8.00;;;;;;;;2;261078341;261078341;-82
2022/03/21 18:24:09;;;;;;;;;14.50;10.50;;;;;;;;2;261075034;261075034;-83
2022/03/21 18:32:25;;;;;;;;;8.00;8.00;;;;;;;;2;261077282;261077282;-83
2022/03/21 18:41:25;;;;;;;;;10.00;10.00;;;;;;;;2;261078529;261078529;-86
2022/03/21 18:49:41;;;;;;;;;8.00;8.00;;;;;;;;2;261078181;261078181;-85
2022/03/21 18:58:41;;;;;;;;;8.00;8.00;;;;;;;;2;261074776;261074776;-85
2022/03/21 19:06:59;;;;;;;;;9.50;9.50;;;;;;;;2;261077165;261077165;-85
2022/03/21 19:16:00;;;;;;;;;23.00;23.00;;;;;;;;2;261076423;261076423;-85
2022/03/21 19:24:16;;;;;;;;;12.50;12.50;;;;;;;;2;261079775;261079775;-85
2022/03/21 19:33:21;;;;;;;;;21.50;12.50;;;;;;;;2;261079610;261079610;-84
2022/03/21 19:41:36;;;;;;;;;16.00;16.00;;;;;;;;2;261077892;261077892;-84
2022/03/21 19:50:37;;;;;;;;;24.00;13.00;;;;;;;;2;261077973;261077973;-84
2022/03/21 19:58:53;;;;;;;;;8.00;8.00;;;;;;;;2;261077855;261077855;-85
2022/03/21 20:07:53;;;;;;;;;33.00;29.00;;;;;;;;2;261079614;261079614;-85
2022/03/21 20:16:09;;;;;;;;;25.50;22.00;;;;;;;;2;261084342;261084342;-84
2022/03/21 20:25:09;;;;;;;;;19.50;19.50;;;;;;;;2;261075327;261075327;-85
2022/03/21 20:33:25;;;;;;;;;24.00;24.00;;;;;;;;2;261079612;261079612;-85
2022/03/21 20:42:25;;;;;;;;;44.00;22.50;;;;;;;;2;261081360;261081360;-83
2022/03/21 20:50:41;;;;;;;;;14.00;14.00;;;;;;;;2;261075109;261075109;-83
2022/03/21 20:59:42;;;;;;;;;10.50;10.50;;;;;;;;2;261075458;261075458;-83
2022/03/21 21:07:58;;;;;;;;;20.50;14.50;;;;;;;;2;261076516;261076516;-83
2022/03/21 21:16:58;;;;;;;;;11.50;11.50;;;;;;;;2;261078070;261078070;-84
2022/03/21 21:25:18;;;;;;;;;25.50;20.00;;;;;;;;2;261076454;261076454;-81
2022/03/21 21:34:20;;;;;;;;;18.00;18.00;;;;;;;;2;261078058;261078058;-81
2022/03/21 21:42:38;;;;;;;;;14.00;14.00;;;;;;;;2;261076362;261076362;-81
2022/03/21 21:51:38;;;;;;;;;21.50;20.00;;;;;;;;2;261077457;261077457;-81
2022/03/21 22:03:15;;;;;;;;;17.50;17.50;;;;;;;;2;261075280;261075280;-81
2022/03/21 22:12:17;;;;;;;;;35.00;23.50;;;;;;;;2;261077596;261077596;-82
2022/03/21 22:20:34;;;;;;;;;25.00;25.00;;;;;;;;2;261080938;261080938;-80
2022/03/21 22:29:37;;;;;;;;;22.50;17.50;;;;;;;;2;261080842;261080842;-80
2022/03/21 22:37:52;;;;;;;;;38.00;23.50;;;;;;;;2;261079075;261079075;-81
2022/03/21 22:47:11;;;;;;;;;22.50;22.50;;;;;;;;2;261079809;261079809;-81
2022/03/21 22:55:26;;;;;;;;;17.00;17.00;;;;;;;;2;261080205;261080205;-81
2022/03/21 23:04:27;;;;;;;;;17.50;14.50;;;;;;;;2;261082060;261082060;-81
2022/03/21 23:12:42;;;;;;;;;23.00;17.50;;;;;;;;2;261078150;261078150;-81
2022/03/21 23:21:43;;;;;;;;;19.00;19.00;;;;;;;;2;261078202;261078202;-81
2022/03/21 23:29:59;;;;;;;;;25.00;13.00;;;;;;;;2;261079486;261079486;-81
2022/03/21 23:39:01;;;;;;;;;8.50;7.00;;;;;;;;2;261083245;261083245;-80
2022/03/21 23:47:16;;;;;;;;;12.00;12.00;;;;;;;;2;261079315;261079315;-81
2022/03/21 23:56:17;;;;;;;;;18.00;18.00;;;;;;;;2;261078708;261078708;-80
